Time;durP1;ratioP1;P1;durP2;ratioP2;P2;SDS_P1;SDS_P2;PMS_P1;PMS_P2;Temp;Humidity;BMP_temperature;BMP_pressure;BME280_temperature;BME280_humidity;BME280_pressure;Samples;Min_cycle;Max_cycle;Signal;HPM_P1;HPM_P2
2022/04/05 00:01:13;;;;;;;91.65;48.72;;;;;;;;;;5087626;28;20107;-68
2022/04/05 00:03:38;;;;;;;129.05;67.60;;;;;;;;;;5089454;28;20024;-71
2022/04/05 00:06:03;;;;;;;152.93;76.50;;;;;;;;;;5089137;28;20047;-69
2022/04/05 00:08:29;;;;;;;89.95;47.80;;;;;;;;;;5085124;28;20447;-69
2022/04/05 00:10:54;;;;;;;175.93;85.93;;;;;;;;;;5093426;28;20074;-67
2022/04/05 00:13:20;;;;;;;132.88;64.60;;;;;;;;;;5092347;28;20514;-74
2022/04/05 00:15:45;;;;;;;194.35;95.53;;;;;;;;;;5093134;28;20438;-70
2022/04/05 00:18:10;;;;;;;173.10;81.45;;;;;;;;;;5093775;28;20020;-69
2022/04/05 00:20:36;;;;;;;122.13;58.97;;;;;;;;;;5092595;28;20038;-76
2022/04/05 00:23:01;;;;;;;131.98;67.50;;;;;;;;;;5093024;28;20107;-70
2022/04/05 00:25:27;;;;;;;99.65;50.65;;;;;;;;;;5094618;28;20060;-69
2022/04/05 00:27:53;;;;;;;89.35;45.75;;;;;;;;;;5095321;28;20321;-68
2022/04/05 00:30:18;;;;;;;102.40;48.00;;;;;;;;;;5092054;28;20043;-74
2022/04/05 00:32:44;;;;;;;100.57;51.53;;;;;;;;;;5089646;28;20431;-72
2022/04/05 00:35:09;;;;;;;86.22;47.30;;;;;;;;;;5095893;28;20394;-71
2022/04/05 00:37:35;;;;;;;74.63;40.80;;;;;;;;;;5091267;28;20087;-74
2022/04/05 00:40:04;;;;;;;70.10;38.55;;;;;;;;;;5092910;28;20431;-70
2022/04/05 00:42:29;;;;;;;71.38;36.90;;;;;;;;;;5088704;28;20024;-68
2022/04/05 00:44:55;;;;;;;76.43;43.65;;;;;;;;;;5092783;28;20038;-77
2022/04/05 00:47:21;;;;;;;86.25;46.90;;;;;;;;;;5093658;28;20527;-71
2022/04/05 00:49:47;;;;;;;70.25;36.58;;;;;;;;;;5093739;28;20028;-68
2022/04/05 00:52:13;;;;;;;71.55;38.08;;;;;;;;;;5092333;28;20038;-69
2022/04/05 00:54:39;;;;;;;48.13;26.92;;;;;;;;;;5086141;28;20554;-78
2022/04/05 00:57:08;;;;;;;40.15;22.17;;;;;;;;;;5084812;28;20499;-75
2022/04/05 00:59:35;;;;;;;44.13;24.60;;;;;;;;;;5086000;28;20020;-72
2022/04/05 01:02:01;;;;;;;52.35;31.27;;;;;;;;;;5094723;28;20479;-77
2022/04/05 01:04:28;;;;;;;55.85;29.83;;;;;;;;;;5089251;28;20467;-67
2022/04/05 01:06:54;;;;;;;45.45;26.02;;;;;;;;;;5086510;28;20438;-77
2022/04/05 01:09:19;;;;;;;49.88;27.15;;;;;;;;;;5089237;28;20024;-69
2022/04/05 01:11:45;;;;;;;57.80;29.23;;;;;;;;;;5090683;28;20066;-72
2022/04/05 01:14:10;;;;;;;47.83;26.48;;;;;;;;;;5083928;28;20462;-68
2022/04/05 01:16:38;;;;;;;54.33;28.55;;;;;;;;;;5083330;28;20073;-75
2022/04/05 01:19:04;;;;;;;50.30;26.65;;;;;;;;;;5088023;28;20020;-67
2022/04/05 01:21:29;;;;;;;49.63;24.55;;;;;;;;;;5085547;28;20032;-70
2022/04/05 01:24:05;;;;;;;39.92;23.80;;;;;;;;;;5093136;28;20049;-77
2022/04/05 01:26:40;;;;;;;43.97;25.67;;;;;;;;;;5092684;28;20024;-70
2022/04/05 01:29:06;;;;;;;44.75;25.58;;;;;;;;;;5083938;28;20028;-69
2022/04/05 01:31:35;;;;;;;44.05;27.10;;;;;;;;;;5080057;28;20028;-68
2022/04/05 01:34:01;;;;;;;44.05;24.40;;;;;;;;;;5091781;28;20038;-69
2022/04/05 01:36:27;;;;;;;46.78;28.30;;;;;;;;;;5086842;28;20434;-69
2022/04/05 01:38:52;;;;;;;54.67;31.70;;;;;;;;;;5089355;28;20032;-69
2022/04/05 01:41:18;;;;;;;48.17;27.75;;;;;;;;;;5093477;28;20029;-71
2022/04/05 01:43:43;;;;;;;66.68;39.38;;;;;;;;;;5091034;28;20422;-70
2022/04/05 01:46:09;;;;;;;60.85;36.13;;;;;;;;;;5092610;28;20047;-76
2022/04/05 01:48:35;;;;;;;69.00;36.92;;;;;;;;;;5090045;28;20848;-69
2022/04/05 01:51:01;;;;;;;60.13;35.47;;;;;;;;;;5095725;28;20638;-69
2022/04/05 01:53:26;;;;;;;35.42;21.60;;;;;;;;;;5094427;28;20042;-70
2022/04/05 01:55:51;;;;;;;80.68;46.72;;;;;;;;;;5091681;28;20028;-69
2022/04/05 01:58:17;;;;;;;89.80;46.25;;;;;;;;;;5088647;28;20020;-71
2022/04/05 02:00:42;;;;;;;94.97;46.42;;;;;;;;;;5084117;28;20023;-69
2022/04/05 02:03:07;;;;;;;55.63;25.90;;;;;;;;;;5082791;28;20066;-68
2022/04/05 02:05:33;;;;;;;85.65;46.75;;;;;;;;;;5080665;28;20032;-74
2022/04/05 02:07:58;;;;;;;48.00;27.15;;;;;;;;;;5086899;28;20034;-70
2022/04/05 02:10:24;;;;;;;89.38;49.83;;;;;;;;;;5090248;28;20031;-78
2022/04/05 02:12:52;;;;;;;90.07;48.97;;;;;;;;;;5090509;28;20051;-70
2022/04/05 02:15:18;;;;;;;63.85;33.90;;;;;;;;;;5088214;28;20059;-76
2022/04/05 02:17:43;;;;;;;48.30;27.85;;;;;;;;;;5082514;28;20128;-70
2022/04/05 02:20:09;;;;;;;68.15;38.25;;;;;;;;;;5077918;28;20038;-79
2022/04/05 02:22:34;;;;;;;34.45;21.00;;;;;;;;;;5080150;28;20109;-70
2022/04/05 02:25:01;;;;;;;42.53;26.58;;;;;;;;;;5080052;28;20531;-70
2022/04/05 02:27:27;;;;;;;36.55;22.77;;;;;;;;;;5084373;28;20061;-70
2022/04/05 02:29:52;;;;;;;52.05;33.83;;;;;;;;;;5082954;28;20028;-76
2022/04/05 02:32:17;;;;;;;39.38;24.75;;;;;;;;;;5089473;28;20034;-71
2022/04/05 02:34:43;;;;;;;47.38;29.10;;;;;;;;;;5091784;28;20866;-75
2022/04/05 02:37:08;;;;;;;38.17;24.10;;;;;;;;;;5094412;28;20019;-73
2022/04/05 02:39:33;;;;;;;49.10;27.40;;;;;;;;;;5095254;28;20031;-79
2022/04/05 02:41:59;;;;;;;51.42;29.02;;;;;;;;;;5095009;28;20533;-74
2022/04/05 02:44:24;;;;;;;51.38;29.35;;;;;;;;;;5094441;28;20052;-71
2022/04/05 02:46:49;;;;;;;37.88;21.38;;;;;;;;;;5095486;27;20118;-69
2022/04/05 02:49:15;;;;;;;40.85;22.58;;;;;;;;;;5082411;28;20035;-70
2022/04/05 02:51:40;;;;;;;39.08;21.35;;;;;;;;;;5085384;28;20077;-69
2022/04/05 02:54:06;;;;;;;36.10;21.10;;;;;;;;;;5097609;28;20035;-68
2022/04/05 02:56:31;;;;;;;48.50;25.38;;;;;;;;;;5091617;28;20036;-68
2022/04/05 02:58:57;;;;;;;48.78;26.40;;;;;;;;;;5087972;28;20026;-74
2022/04/05 03:01:23;;;;;;;38.75;22.02;;;;;;;;;;5097026;28;20019;-69
2022/04/05 03:03:48;;;;;;;29.95;18.75;;;;;;;;;;5087343;28;20043;-78
2022/04/05 03:06:14;;;;;;;35.22;19.73;;;;;;;;;;5082476;28;20468;-72
2022/04/05 03:08:40;;;;;;;46.45;23.67;;;;;;;;;;5084318;28;20033;-72
2022/04/05 03:11:06;;;;;;;53.42;28.75;;;;;;;;;;5092687;28;20023;-72
2022/04/05 03:13:32;;;;;;;45.03;24.40;;;;;;;;;;5092771;28;20020;-69
2022/04/05 03:15:57;;;;;;;43.03;22.20;;;;;;;;;;5088360;28;20625;-69
2022/04/05 03:18:23;;;;;;;40.38;22.52;;;;;;;;;;5093592;28;20035;-73
2022/04/05 03:20:48;;;;;;;51.78;27.85;;;;;;;;;;5094957;28;20027;-69
2022/04/05 03:23:13;;;;;;;52.47;28.45;;;;;;;;;;5094672;28;20457;-70
2022/04/05 03:25:39;;;;;;;74.15;38.45;;;;;;;;;;5091881;28;20049;-67
2022/04/05 03:28:04;;;;;;;74.35;40.15;;;;;;;;;;5097328;28;20102;-71
2022/04/05 03:30:30;;;;;;;73.45;41.08;;;;;;;;;;5085863;28;20024;-68
2022/04/05 03:32:55;;;;;;;67.78;34.50;;;;;;;;;;5093737;28;20043;-76
2022/04/05 03:35:21;;;;;;;65.78;37.15;;;;;;;;;;5089442;28;20109;-70
2022/04/05 03:37:46;;;;;;;62.30;33.70;;;;;;;;;;5094365;28;20028;-69
2022/04/05 03:40:12;;;;;;;92.97;59.30;;;;;;;;;;5095409;28;21132;-76
2022/04/05 03:42:37;;;;;;;67.68;40.45;;;;;;;;;;5095348;28;20016;-70
2022/04/05 03:45:03;;;;;;;53.70;33.75;;;;;;;;;;5093352;28;20052;-70
2022/04/05 03:47:28;;;;;;;45.65;25.15;;;;;;;;;;5091911;28;20028;-70
2022/04/05 03:49:54;;;;;;;41.30;24.83;;;;;;;;;;5083940;28;20428;-74
2022/04/05 03:52:20;;;;;;;54.10;37.38;;;;;;;;;;5085638;28;20099;-79
2022/04/05 03:54:45;;;;;;;60.63;41.05;;;;;;;;;;5088610;28;20370;-72
2022/04/05 03:57:11;;;;;;;47.50;34.50;;;;;;;;;;5091495;28;20024;-73
2022/04/05 03:59:36;;;;;;;37.13;23.75;;;;;;;;;;5092149;28;20378;-68
2022/04/05 04:02:02;;;;;;;31.30;19.02;;;;;;;;;;5084796;28;20040;-69
2022/04/05 04:04:27;;;;;;;31.33;19.52;;;;;;;;;;5095559;28;20062;-68
2022/04/05 04:06:52;;;;;;;28.75;17.48;;;;;;;;;;5092039;28;20063;-69
2022/04/05 04:09:18;;;;;;;34.33;20.00;;;;;;;;;;5093626;28;20024;-68
2022/04/05 04:11:44;;;;;;;39.30;23.23;;;;;;;;;;5096104;28;20035;-74
2022/04/05 04:14:10;;;;;;;48.72;27.48;;;;;;;;;;5094075;28;20347;-71
2022/04/05 04:16:35;;;;;;;99.28;54.67;;;;;;;;;;5088098;28;20028;-74
2022/04/05 04:19:01;;;;;;;117.70;62.38;;;;;;;;;;5091059;28;20031;-72
2022/04/05 04:21:26;;;;;;;182.23;99.38;;;;;;;;;;5084023;28;20028;-68
2022/04/05 04:23:52;;;;;;;157.02;86.80;;;;;;;;;;5093865;28;20096;-68
2022/04/05 04:26:17;;;;;;;197.90;107.53;;;;;;;;;;5093197;28;20027;-69
2022/04/05 04:28:42;;;;;;;157.32;80.25;;;;;;;;;;5095662;28;20031;-67
2022/04/05 04:31:08;;;;;;;101.63;55.13;;;;;;;;;;5092961;28;20034;-76
2022/04/05 04:33:33;;;;;;;111.72;51.80;;;;;;;;;;5092108;28;20015;-65
2022/04/05 04:35:59;;;;;;;143.25;72.72;;;;;;;;;;5094433;28;21192;-71
2022/04/05 04:38:24;;;;;;;125.45;59.92;;;;;;;;;;5095473;28;20031;-69
2022/04/05 04:40:52;;;;;;;176.60;94.03;;;;;;;;;;5091904;28;20078;-67
2022/04/05 04:43:18;;;;;;;141.55;73.65;;;;;;;;;;5074302;28;20045;-70
2022/04/05 04:45:44;;;;;;;119.93;60.17;;;;;;;;;;5072890;28;20050;-69
2022/04/05 04:48:09;;;;;;;82.25;45.20;;;;;;;;;;5060787;28;20028;-70
2022/04/05 04:50:35;;;;;;;80.20;43.95;;;;;;;;;;5064302;28;20089;-69
2022/04/05 04:53:01;;;;;;;89.90;48.67;;;;;;;;;;5070890;28;20029;-70
2022/04/05 04:55:27;;;;;;;78.95;47.28;;;;;;;;;;5062383;28;20028;-69
2022/04/05 04:57:53;;;;;;;67.95;41.08;;;;;;;;;;5069577;28;20019;-66
2022/04/05 05:00:19;;;;;;;134.90;70.32;;;;;;;;;;5068072;28;20028;-70
2022/04/05 05:02:45;;;;;;;413.35;182.10;;;;;;;;;;5060481;28;20075;-68
2022/04/05 05:05:11;;;;;;;164.25;86.70;;;;;;;;;;5059462;28;20036;-69
2022/04/05 05:07:37;;;;;;;255.25;122.55;;;;;;;;;;5062101;28;20495;-67
2022/04/05 05:10:02;;;;;;;238.10;122.60;;;;;;;;;;5060954;28;20175;-76
2022/04/05 05:12:27;;;;;;;181.15;98.07;;;;;;;;;;5061524;28;20411;-73
2022/04/05 05:14:53;;;;;;;110.55;59.13;;;;;;;;;;5069403;28;20034;-68
2022/04/05 05:17:20;;;;;;;111.97;66.10;;;;;;;;;;5061337;28;20119;-76
2022/04/05 05:19:48;;;;;;;114.68;69.82;;;;;;;;;;5062029;28;20438;-73
2022/04/05 05:22:14;;;;;;;87.20;51.15;;;;;;;;;;5069417;28;20035;-68
2022/04/05 05:24:40;;;;;;;86.65;51.90;;;;;;;;;;5062188;28;22054;-71
2022/04/05 05:27:06;;;;;;;125.10;72.82;;;;;;;;;;5051363;28;20750;-68
2022/04/05 05:29:32;;;;;;;128.13;71.60;;;;;;;;;;5062109;28;20030;-71
2022/04/05 05:32:01;;;;;;;105.78;59.58;;;;;;;;;;5069947;28;20801;-71
2022/04/05 05:34:26;;;;;;;80.35;52.25;;;;;;;;;;5071671;28;20132;-74
2022/04/05 05:36:53;;;;;;;75.45;46.40;;;;;;;;;;5071723;28;20105;-71
2022/04/05 05:39:23;;;;;;;108.55;63.22;;;;;;;;;;5072404;28;20055;-73
2022/04/05 05:41:48;;;;;;;100.40;54.20;;;;;;;;;;5067088;28;20020;-69
2022/04/05 05:44:14;;;;;;;122.45;66.97;;;;;;;;;;5057223;28;20040;-70
2022/04/05 05:46:42;;;;;;;142.52;74.93;;;;;;;;;;5058655;28;20071;-68
2022/04/05 05:49:09;;;;;;;142.45;73.25;;;;;;;;;;5060279;28;20036;-71
2022/04/05 05:51:34;;;;;;;131.80;67.15;;;;;;;;;;5051566;28;20395;-68
2022/04/05 05:54:01;;;;;;;136.00;73.13;;;;;;;;;;5072659;28;20141;-70
2022/04/05 05:56:27;;;;;;;194.45;113.40;;;;;;;;;;5071165;28;20058;-70
2022/04/05 05:58:54;;;;;;;193.02;110.22;;;;;;;;;;5068824;28;20040;-69
2022/04/05 06:01:20;;;;;;;176.13;105.05;;;;;;;;;;5067972;28;20028;-75
2022/04/05 06:03:46;;;;;;;134.02;81.63;;;;;;;;;;5070263;28;20028;-72
2022/04/05 06:06:11;;;;;;;87.57;58.67;;;;;;;;;;5069117;28;20064;-71
2022/04/05 06:08:37;;;;;;;81.13;53.90;;;;;;;;;;5063401;28;20035;-71
2022/04/05 06:11:04;;;;;;;81.15;57.20;;;;;;;;;;5068194;28;20479;-70
2022/04/05 06:13:29;;;;;;;80.22;53.25;;;;;;;;;;5076632;28;20027;-74
2022/04/05 06:15:55;;;;;;;73.75;49.08;;;;;;;;;;5079329;28;20085;-70
2022/04/05 06:18:21;;;;;;;61.47;46.47;;;;;;;;;;5078158;28;20027;-76
2022/04/05 06:20:46;;;;;;;67.70;48.13;;;;;;;;;;5078254;28;20501;-70
2022/04/05 06:23:12;;;;;;;73.78;45.22;;;;;;;;;;5077012;28;20040;-72
2022/04/05 06:25:38;;;;;;;62.75;39.50;;;;;;;;;;5073307;28;20040;-71
2022/04/05 06:28:04;;;;;;;67.68;40.00;;;;;;;;;;5071741;28;20526;-69
2022/04/05 06:30:32;;;;;;;54.00;33.70;;;;;;;;;;5077734;28;20024;-70
2022/04/05 06:33:09;;;;;;;55.40;33.75;;;;;;;;;;5077002;28;20042;-70
2022/04/05 06:35:35;;;;;;;63.03;36.85;;;;;;;;;;5073120;28;20169;-69
2022/04/05 06:38:02;;;;;;;66.07;36.55;;;;;;;;;;5076251;28;20031;-71
2022/04/05 06:40:27;;;;;;;60.80;37.50;;;;;;;;;;5076242;28;20039;-73
2022/04/05 06:42:53;;;;;;;59.45;36.92;;;;;;;;;;5074276;28;20052;-70
2022/04/05 06:45:19;;;;;;;59.35;39.65;;;;;;;;;;5073109;28;20039;-71
2022/04/05 06:47:47;;;;;;;86.47;50.92;;;;;;;;;;5074271;28;20031;-70
2022/04/05 06:50:20;;;;;;;64.47;42.03;;;;;;;;;;5071253;28;20033;-73
2022/04/05 06:52:46;;;;;;;46.70;32.15;;;;;;;;;;5074217;28;20065;-70
2022/04/05 06:55:13;;;;;;;52.85;32.28;;;;;;;;;;5074493;28;20118;-70
2022/04/05 06:57:39;;;;;;;49.67;31.52;;;;;;;;;;5073485;28;20066;-71
2022/04/05 07:00:07;;;;;;;52.13;34.53;;;;;;;;;;5075500;28;20031;-70
2022/04/05 07:02:32;;;;;;;54.20;35.30;;;;;;;;;;5074185;28;20440;-71
2022/04/05 07:04:59;;;;;;;57.45;38.03;;;;;;;;;;5072472;28;20062;-73
2022/04/05 07:07:24;;;;;;;156.88;73.93;;;;;;;;;;5070065;28;20536;-71
2022/04/05 07:09:50;;;;;;;138.85;60.97;;;;;;;;;;5073190;28;20048;-72
2022/04/05 07:12:15;;;;;;;97.68;45.10;;;;;;;;;;5074603;28;20393;-71
2022/04/05 07:14:41;;;;;;;52.25;29.08;;;;;;;;;;5074838;28;20033;-71
2022/04/05 07:17:07;;;;;;;43.45;27.00;;;;;;;;;;5072820;28;20024;-71
2022/04/05 07:19:33;;;;;;;22.23;14.38;;;;;;;;;;5075264;28;20039;-70
2022/04/05 07:21:59;;;;;;;110.68;50.45;;;;;;;;;;5073367;28;20449;-71
2022/04/05 07:24:26;;;;;;;48.25;22.95;;;;;;;;;;5054960;28;20048;-71
2022/04/05 07:26:52;;;;;;;39.20;23.92;;;;;;;;;;5073953;28;20073;-71
2022/04/05 07:29:18;;;;;;;32.90;19.35;;;;;;;;;;5052488;28;20020;-72
2022/04/05 07:31:43;;;;;;;35.80;19.42;;;;;;;;;;5073879;28;20024;-75
2022/04/05 07:34:12;;;;;;;15.63;10.43;;;;;;;;;;5073025;28;20084;-71
2022/04/05 07:36:38;;;;;;;140.63;65.22;;;;;;;;;;5075834;28;20012;-73
2022/04/05 07:39:05;;;;;;;40.25;19.20;;;;;;;;;;5072809;28;20027;-70
2022/04/05 07:41:32;;;;;;;16.40;10.13;;;;;;;;;;5074031;28;20024;-71
2022/04/05 07:43:59;;;;;;;38.30;21.15;;;;;;;;;;5071134;28;20053;-72
2022/04/05 07:46:25;;;;;;;38.38;18.75;;;;;;;;;;5071868;28;20044;-73
2022/04/05 07:48:51;;;;;;;31.45;17.75;;;;;;;;;;5074610;28;20024;-73
2022/04/05 07:51:23;;;;;;;23.95;19.23;;;;;;;;;;5052942;28;20032;-71
2022/04/05 07:53:48;;;;;;;15.63;9.18;;;;;;;;;;5071731;28;20032;-71
2022/04/05 07:56:16;;;;;;;44.13;23.23;;;;;;;;;;5076711;28;20024;-72
2022/04/05 07:58:46;;;;;;;43.28;23.45;;;;;;;;;;5054036;28;20028;-72
2022/04/05 08:01:11;;;;;;;17.52;10.90;;;;;;;;;;5069591;28;20340;-74
2022/04/05 08:03:38;;;;;;;12.25;8.98;;;;;;;;;;5071077;28;20089;-72
2022/04/05 08:06:08;;;;;;;48.90;30.27;;;;;;;;;;5072514;28;20036;-72
2022/04/05 08:08:33;;;;;;;34.92;23.98;;;;;;;;;;5049067;28;20036;-73
2022/04/05 08:10:59;;;;;;;28.02;24.65;;;;;;;;;;5071157;28;20028;-74
2022/04/05 08:13:27;;;;;;;8.23;7.28;;;;;;;;;;5073056;28;20138;-73
2022/04/05 08:15:54;;;;;;;34.50;18.23;;;;;;;;;;5072076;28;20389;-72
2022/04/05 08:18:21;;;;;;;27.88;16.10;;;;;;;;;;5071211;28;21138;-71
2022/04/05 08:20:46;;;;;;;9.35;6.85;;;;;;;;;;5072045;28;20017;-71
2022/04/05 08:23:12;;;;;;;7.63;6.32;;;;;;;;;;5073630;28;20454;-73
2022/04/05 08:25:38;;;;;;;7.82;6.90;;;;;;;;;;5070369;28;20531;-73
2022/04/05 08:28:06;;;;;;;8.60;7.57;;;;;;;;;;5075849;28;20036;-72
2022/04/05 08:30:32;;;;;;;23.33;13.00;;;;;;;;;;5074531;28;20027;-71
2022/04/05 08:32:57;;;;;;;13.73;9.18;;;;;;;;;;5071786;28;20039;-73
2022/04/05 08:35:25;;;;;;;8.05;5.40;;;;;;;;;;5072399;28;20039;-73
2022/04/05 08:37:51;;;;;;;5.15;4.05;;;;;;;;;;5070935;28;20028;-71
2022/04/05 08:40:18;;;;;;;5.32;3.60;;;;;;;;;;5069908;28;20107;-72
2022/04/05 08:42:45;;;;;;;10.35;6.68;;;;;;;;;;5070224;28;20024;-74
2022/04/05 08:45:12;;;;;;;9.05;6.95;;;;;;;;;;5068985;28;20048;-73
2022/04/05 08:47:44;;;;;;;9.30;7.03;;;;;;;;;;5070249;28;20055;-73
2022/04/05 08:50:09;;;;;;;4.13;3.47;;;;;;;;;;5073108;28;20073;-73
2022/04/05 08:52:38;;;;;;;6.43;5.13;;;;;;;;;;5073975;28;20097;-74
2022/04/05 08:55:03;;;;;;;4.45;3.95;;;;;;;;;;5074832;28;20124;-71
2022/04/05 08:57:32;;;;;;;6.70;4.68;;;;;;;;;;5070612;28;20100;-71
2022/04/05 08:59:57;;;;;;;5.68;4.18;;;;;;;;;;5071788;28;20450;-72
2022/04/05 09:02:23;;;;;;;4.28;3.03;;;;;;;;;;5073156;28;20081;-72
2022/04/05 09:04:49;;;;;;;3.40;3.00;;;;;;;;;;5072627;28;20533;-72
2022/04/05 09:07:21;;;;;;;4.53;3.80;;;;;;;;;;5071045;28;20025;-73
2022/04/05 09:10:07;;;;;;;5.90;3.58;;;;;;;;;;5069685;28;20098;-72
2022/04/05 09:12:39;;;;;;;12.77;9.27;;;;;;;;;;5063479;28;20471;-72
2022/04/05 09:15:08;;;;;;;9.02;6.90;;;;;;;;;;5070821;28;20043;-73
2022/04/05 09:17:40;;;;;;;5.65;4.97;;;;;;;;;;5070841;28;20416;-72
2022/04/05 09:20:06;;;;;;;4.13;3.50;;;;;;;;;;5069588;28;20032;-72
2022/04/05 09:22:35;;;;;;;4.13;3.72;;;;;;;;;;5071593;28;20126;-73
2022/04/05 09:25:11;;;;;;;4.27;3.87;;;;;;;;;;5070236;28;20046;-72
2022/04/05 09:27:57;;;;;;;21.38;14.07;;;;;;;;;;5071752;28;20016;-72
2022/04/05 09:30:27;;;;;;;16.83;10.57;;;;;;;;;;5069058;28;20132;-73
2022/04/05 09:32:53;;;;;;;7.88;4.82;;;;;;;;;;5068574;28;20025;-73
2022/04/05 09:35:20;;;;;;;15.50;9.90;;;;;;;;;;5070568;28;20040;-72
2022/04/05 09:37:46;;;;;;;14.57;11.60;;;;;;;;;;5071261;28;20043;-73
2022/04/05 09:40:26;;;;;;;5.38;3.70;;;;;;;;;;5067335;28;20054;-73
2022/04/05 09:42:58;;;;;;;10.45;7.85;;;;;;;;;;5068328;28;20053;-74
2022/04/05 09:45:43;;;;;;;8.15;7.28;;;;;;;;;;5071877;28;20048;-73
2022/04/05 09:48:08;;;;;;;8.27;7.28;;;;;;;;;;5070316;28;20036;-72
2022/04/05 09:50:53;;;;;;;6.65;5.65;;;;;;;;;;5069364;28;20020;-73
2022/04/05 09:53:19;;;;;;;6.65;3.10;;;;;;;;;;5071787;28;20669;-74
2022/04/05 09:55:44;;;;;;;6.10;4.10;;;;;;;;;;5070299;28;20035;-75
2022/04/05 09:58:10;;;;;;;5.90;4.30;;;;;;;;;;5074519;28;20317;-74
2022/04/05 10:00:35;;;;;;;4.55;3.95;;;;;;;;;;5070240;28;20017;-73
2022/04/05 10:03:03;;;;;;;3.95;3.28;;;;;;;;;;5073921;28;20043;-73
2022/04/05 10:05:32;;;;;;;5.35;3.85;;;;;;;;;;5070062;28;21241;-73
2022/04/05 10:07:58;;;;;;;4.15;3.33;;;;;;;;;;5070447;28;20126;-73
2022/04/05 10:10:26;;;;;;;4.20;3.80;;;;;;;;;;5069151;28;20502;-74
2022/04/05 10:12:52;;;;;;;7.30;4.75;;;;;;;;;;5072873;28;20024;-74
2022/04/05 10:15:20;;;;;;;3.72;2.85;;;;;;;;;;5067866;28;20021;-74
2022/04/05 10:17:47;;;;;;;11.32;7.65;;;;;;;;;;5072033;28;20052;-74
2022/04/05 10:20:12;;;;;;;2.03;1.80;;;;;;;;;;5069844;28;20418;-71
2022/04/05 10:22:39;;;;;;;5.03;3.53;;;;;;;;;;5071234;28;20095;-73
2022/04/05 10:25:05;;;;;;;8.73;6.57;;;;;;;;;;5069863;28;20044;-75
2022/04/05 10:27:31;;;;;;;8.55;5.05;;;;;;;;;;5073015;28;21116;-75
2022/04/05 10:30:03;;;;;;;8.15;4.78;;;;;;;;;;5070444;28;20020;-72
2022/04/05 10:32:47;;;;;;;2.25;1.95;;;;;;;;;;5069570;28;20039;-72
2022/04/05 10:35:14;;;;;;;4.20;2.78;;;;;;;;;;5070732;28;20074;-74
2022/04/05 10:37:39;;;;;;;6.72;3.95;;;;;;;;;;5071587;28;20384;-73
2022/04/05 10:40:05;;;;;;;3.40;2.00;;;;;;;;;;5072407;28;20115;-72
2022/04/05 10:42:35;;;;;;;2.08;1.42;;;;;;;;;;5070921;28;20487;-74
2022/04/05 10:45:17;;;;;;;2.15;1.95;;;;;;;;;;5070022;28;20122;-73
2022/04/05 10:48:00;;;;;;;3.63;3.13;;;;;;;;;;5071020;28;20725;-76
2022/04/05 10:50:26;;;;;;;2.70;2.45;;;;;;;;;;5069461;28;20332;-75
2022/04/05 10:53:11;;;;;;;8.27;5.53;;;;;;;;;;5069361;28;20035;-74
2022/04/05 10:55:55;;;;;;;7.78;5.38;;;;;;;;;;5067914;28;20066;-75
2022/04/05 10:58:20;;;;;;;7.05;5.35;;;;;;;;;;5072208;28;20492;-75
2022/04/05 11:00:47;;;;;;;5.80;3.00;;;;;;;;;;5076098;28;20113;-73
2022/04/05 11:03:12;;;;;;;9.02;7.00;;;;;;;;;;5071954;28;20067;-75
2022/04/05 11:05:40;;;;;;;4.97;3.15;;;;;;;;;;5075552;28;20114;-74
2022/04/05 11:08:13;;;;;;;2.22;2.00;;;;;;;;;;5074009;28;20024;-74
2022/04/05 11:10:41;;;;;;;2.80;2.60;;;;;;;;;;5074289;28;20033;-74
2022/04/05 11:13:12;;;;;;;3.67;2.22;;;;;;;;;;5072649;28;20028;-74
2022/04/05 11:15:39;;;;;;;6.18;3.70;;;;;;;;;;5073328;28;20118;-75
2022/04/05 11:18:05;;;;;;;3.55;2.70;;;;;;;;;;5077522;28;20148;-73
2022/04/05 11:20:30;;;;;;;2.70;2.30;;;;;;;;;;5073376;28;20104;-74
2022/04/05 11:23:00;;;;;;;4.10;2.78;;;;;;;;;;5074936;28;20036;-76
2022/04/05 11:25:25;;;;;;;;;;;;;;;;;;5063216;28;20111;-76
2022/04/05 11:27:52;;;;;;;3.20;2.90;;;;;;;;;;5060369;28;20011;-74
2022/04/05 11:30:21;;;;;;;4.95;3.13;;;;;;;;;;5063812;28;20028;-76
2022/04/05 11:33:05;;;;;;;3.03;2.83;;;;;;;;;;5062530;28;20024;-73
2022/04/05 11:35:34;;;;;;;3.47;2.75;;;;;;;;;;5063054;28;20040;-75
2022/04/05 11:37:59;;;;;;;2.05;1.90;;;;;;;;;;5058898;28;20444;-77
2022/04/05 11:40:24;;;;;;;2.65;2.45;;;;;;;;;;5061826;28;20023;-75
2022/04/05 11:42:50;;;;;;;3.10;2.80;;;;;;;;;;5064504;28;20081;-74
2022/04/05 11:45:16;;;;;;;3.83;2.65;;;;;;;;;;5048596;28;20044;-73
2022/04/05 11:47:41;;;;;;;2.75;2.55;;;;;;;;;;5055797;28;20039;-77
2022/04/05 11:50:08;;;;;;;3.00;2.80;;;;;;;;;;5067677;28;20055;-76
2022/04/05 11:52:33;;;;;;;2.90;2.60;;;;;;;;;;5068576;28;20066;-76
2022/04/05 11:57:44;;;;;;;5.28;2.80;;;;;;;;;;5066585;28;20413;-75
2022/04/05 12:00:09;;;;;;;3.53;2.97;;;;;;;;;;5065881;28;20107;-75
2022/04/05 12:02:35;;;;;;;3.38;3.08;;;;;;;;;;5063761;28;20104;-76
2022/04/05 12:05:00;;;;;;;5.82;4.65;;;;;;;;;;5064398;28;20070;-77
2022/04/05 12:07:30;;;;;;;2.97;2.67;;;;;;;;;;5068596;28;20140;-76
2022/04/05 12:09:56;;;;;;;5.03;4.20;;;;;;;;;;5069535;28;20336;-76
2022/04/05 12:12:24;;;;;;;3.63;3.22;;;;;;;;;;5063148;28;20022;-75
2022/04/05 12:14:49;;;;;;;4.55;3.15;;;;;;;;;;5069600;28;20086;-77
2022/04/05 12:17:15;;;;;;;3.83;3.42;;;;;;;;;;5071157;28;20420;-76
2022/04/05 12:19:41;;;;;;;3.95;3.00;;;;;;;;;;5063524;28;20024;-76
2022/04/05 12:22:16;;;;;;;4.78;2.97;;;;;;;;;;5064201;28;20028;-74
2022/04/05 12:24:53;;;;;;;3.72;2.88;;;;;;;;;;5066799;28;20515;-74
2022/04/05 12:27:21;;;;;;;3.60;3.30;;;;;;;;;;5065393;28;20028;-76
2022/04/05 12:29:46;;;;;;;4.45;3.60;;;;;;;;;;5058615;28;20354;-75
2022/04/05 12:32:12;;;;;;;3.65;2.30;;;;;;;;;;5068177;28;20020;-73
2022/04/05 12:34:39;;;;;;;3.70;2.70;;;;;;;;;;5068940;28;20153;-75
2022/04/05 12:37:12;;;;;;;9.40;3.42;;;;;;;;;;5062325;28;20034;-77
2022/04/05 12:39:42;;;;;;;6.55;5.50;;;;;;;;;;5059907;28;20030;-76
2022/04/05 12:42:08;;;;;;;2.85;2.53;;;;;;;;;;5065353;28;20024;-76
2022/04/05 12:44:37;;;;;;;6.53;4.78;;;;;;;;;;5062182;28;20052;-75
2022/04/05 12:47:14;;;;;;;5.45;4.78;;;;;;;;;;5063097;28;20413;-74
2022/04/05 12:49:49;;;;;;;6.80;2.83;;;;;;;;;;5072502;28;20044;-78
2022/04/05 12:52:16;;;;;;;5.75;2.35;;;;;;;;;;5044685;28;20032;-77
2022/04/05 12:54:49;;;;;;;4.03;3.33;;;;;;;;;;5062250;28;20114;-76
2022/04/05 12:57:34;;;;;;;4.30;3.58;;;;;;;;;;5047850;28;20107;-76
2022/04/05 13:00:07;;;;;;;5.90;4.85;;;;;;;;;;5057188;28;20028;-78
2022/04/05 13:02:36;;;;;;;5.18;3.50;;;;;;;;;;5060036;28;20099;-76
2022/04/05 13:07:59;;;;;;;2.55;2.22;;;;;;;;;;5068739;28;20043;-78
2022/04/05 13:10:32;;;;;;;20.25;9.30;;;;;;;;;;5064692;28;20021;-77
2022/04/05 13:13:10;;;;;;;8.13;6.78;;;;;;;;;;5064802;28;20436;-76
2022/04/05 13:15:36;;;;;;;3.50;2.70;;;;;;;;;;5063889;28;20036;-77
2022/04/05 13:18:05;;;;;;;3.58;2.90;;;;;;;;;;5066912;28;20020;-75
2022/04/05 13:20:30;;;;;;;2.13;1.77;;;;;;;;;;5061757;28;20478;-80
2022/04/05 13:23:00;;;;;;;4.93;3.00;;;;;;;;;;5057395;28;20032;-77
2022/04/05 13:25:25;;;;;;;;;;;;;;;;;;5068556;28;20029;-78
2022/04/05 13:27:58;;;;;;;2.87;1.70;;;;;;;;;;5054575;28;19913;-76
2022/04/05 13:30:23;;;;;;;3.80;2.22;;;;;;;;;;5069413;28;20027;-74
2022/04/05 13:33:01;;;;;;;2.75;1.80;;;;;;;;;;5073846;28;20020;-76
2022/04/05 13:35:27;;;;;;;3.72;1.60;;;;;;;;;;5073708;28;20391;-76
2022/04/05 13:37:52;;;;;;;2.28;1.67;;;;;;;;;;5069039;28;20035;-77
2022/04/05 13:40:17;;;;;;;2.47;1.67;;;;;;;;;;5062671;28;20366;-76
2022/04/05 13:42:43;;;;;;;1.67;1.40;;;;;;;;;;5058255;28;20032;-78
2022/04/05 13:45:09;;;;;;;3.83;2.45;;;;;;;;;;5058596;28;20055;-77
2022/04/05 13:47:34;;;;;;;3.70;1.90;;;;;;;;;;5074250;28;20023;-75
2022/04/05 13:50:00;;;;;;;2.50;1.95;;;;;;;;;;5073213;28;20023;-76
2022/04/05 13:52:25;;;;;;;4.38;3.05;;;;;;;;;;5068161;28;20024;-76
2022/04/05 13:54:50;;;;;;;1.75;1.65;;;;;;;;;;5073609;28;20485;-75
2022/04/05 13:57:20;;;;;;;5.07;2.15;;;;;;;;;;5074240;28;20031;-75
2022/04/05 13:59:45;;;;;;;;;;;;;;;;;;5065051;28;20423;-75
2022/04/05 14:02:11;;;;;;;6.97;4.93;;;;;;;;;;5072078;28;19914;-74
2022/04/05 14:04:36;;;;;;;1.60;1.50;;;;;;;;;;5074076;28;20032;-78
2022/04/05 14:07:02;;;;;;;12.00;8.43;;;;;;;;;;5070229;28;20033;-78
2022/04/05 14:09:28;;;;;;;12.15;8.85;;;;;;;;;;5071461;28;20443;-77
2022/04/05 14:11:53;;;;;;;1.60;1.42;;;;;;;;;;5070610;28;20024;-77
2022/04/05 14:14:19;;;;;;;1.85;1.70;;;;;;;;;;5066846;28;20161;-78
2022/04/05 14:16:44;;;;;;;9.45;7.70;;;;;;;;;;5066393;28;20039;-78
2022/04/05 14:19:10;;;;;;;5.32;4.30;;;;;;;;;;5066421;28;20140;-75
2022/04/05 14:21:35;;;;;;;4.90;2.60;;;;;;;;;;5069176;28;20033;-76
2022/04/05 14:24:03;;;;;;;3.78;2.10;;;;;;;;;;5061267;28;20021;-77
2022/04/05 14:26:28;;;;;;;5.22;4.72;;;;;;;;;;5053377;28;20151;-77
2022/04/05 14:28:56;;;;;;;2.63;2.40;;;;;;;;;;5076333;28;20123;-77
2022/04/05 14:31:21;;;;;;;18.95;15.25;;;;;;;;;;5075611;28;20547;-78